Time;durP1;ratioP1;P1;durP2;ratioP2;P2;SDS_P1;SDS_P2;PMS_P1;PMS_P2;Temp;Humidity;BMP_temperature;BMP_pressure;BME280_temperature;BME280_humidity;BME280_pressure;Samples;Min_cycle;Max_cycle;Signal;HPM_P1;HPM_P2
2022/10/15 00:01:16;;;;;;;46.53;23.88;;;13.50;99.90;;;;;;5054118;28;20166;-73
2022/10/15 00:03:43;;;;;;;45.55;24.13;;;13.50;99.90;;;;;;5063093;28;20021;-74
2022/10/15 00:06:15;;;;;;;49.97;26.35;;;13.50;99.90;;;;;;5063188;28;20021;-73
2022/10/15 00:08:41;;;;;;;53.80;26.50;;;13.40;99.90;;;;;;5063757;28;20036;-75
2022/10/15 00:11:13;;;;;;;45.03;25.45;;;13.40;99.90;;;;;;5063116;28;20027;-74
2022/10/15 00:13:39;;;;;;;49.88;25.50;;;13.40;99.90;;;;;;5063508;28;20061;-74
2022/10/15 00:16:12;;;;;;;48.28;24.90;;;13.40;99.90;;;;;;5054670;28;20033;-73
2022/10/15 00:18:38;;;;;;;52.92;25.45;;;13.40;99.90;;;;;;5062965;28;20389;-75
2022/10/15 00:21:06;;;;;;;53.95;25.98;;;13.30;99.90;;;;;;5062675;28;20056;-74
2022/10/15 00:23:32;;;;;;;53.80;25.38;;;13.30;99.90;;;;;;5046239;28;20032;-74
2022/10/15 00:26:06;;;;;;;51.25;24.40;;;13.30;99.90;;;;;;5062857;28;20090;-73
2022/10/15 00:28:32;;;;;;;47.05;25.70;;;13.30;99.90;;;;;;5054384;28;20029;-73
2022/10/15 00:31:03;;;;;;;51.13;25.00;;;13.20;99.90;;;;;;5062466;28;20052;-75
2022/10/15 00:33:28;;;;;;;52.13;26.50;;;13.20;99.90;;;;;;5063441;28;20028;-74
2022/10/15 00:36:03;;;;;;;45.28;25.00;;;13.20;99.90;;;;;;5063196;28;20025;-74
2022/10/15 00:38:29;;;;;;;51.42;26.63;;;13.20;99.90;;;;;;5062479;28;20025;-72
2022/10/15 00:40:55;;;;;;;51.63;27.10;;;13.20;99.90;;;;;;5043680;28;20075;-74
2022/10/15 00:43:40;;;;;;;48.10;25.55;;;13.20;99.90;;;;;;5063617;28;20025;-73
2022/10/15 00:46:17;;;;;;;53.55;26.23;;;13.10;99.90;;;;;;5062220;28;20080;-75
2022/10/15 00:48:45;;;;;;;49.25;26.38;;;13.10;99.90;;;;;;5062623;28;20029;-72
2022/10/15 00:51:11;;;;;;;52.55;25.88;;;13.10;99.90;;;;;;5061618;28;20044;-74
2022/10/15 00:53:36;;;;;;;56.50;28.20;;;13.10;99.90;;;;;;5053105;28;20029;-73
2022/10/15 00:56:02;;;;;;;46.92;25.85;;;13.10;99.90;;;;;;5062010;28;20036;-75
2022/10/15 00:58:30;;;;;;;51.80;27.05;;;13.10;99.90;;;;;;5063064;28;20017;-74
2022/10/15 01:00:56;;;;;;;49.25;27.65;;;13.10;99.90;;;;;;5061006;28;20043;-74
2022/10/15 01:03:22;;;;;;;65.22;31.67;;;13.00;99.90;;;;;;5053126;28;20028;-74
2022/10/15 01:05:52;;;;;;;70.82;32.00;;;13.00;99.90;;;;;;5063059;28;20029;-74
2022/10/15 01:08:18;;;;;;;140.40;64.63;;;13.00;99.90;;;;;;5061380;28;20025;-72
2022/10/15 01:10:53;;;;;;;211.30;81.72;;;13.00;99.90;;;;;;5062966;28;20105;-74
2022/10/15 01:13:34;;;;;;;161.18;72.43;;;12.90;99.90;;;;;;5062225;28;20016;-73
2022/10/15 01:16:05;;;;;;;86.60;41.88;;;13.00;99.90;;;;;;5043445;28;20039;-73
2022/10/15 01:18:56;;;;;;;65.88;32.90;;;12.90;99.90;;;;;;5062935;28;20056;-73
2022/10/15 01:21:33;;;;;;;57.80;29.70;;;12.90;99.90;;;;;;5062440;28;20037;-74
2022/10/15 01:24:26;;;;;;;59.30;29.90;;;12.80;99.90;;;;;;5067917;28;20051;-74
2022/10/15 01:27:10;;;;;;;57.72;28.90;;;12.80;99.90;;;;;;5062438;28;20035;-73
2022/10/15 01:30:11;;;;;;;57.72;28.50;;;12.80;99.90;;;;;;5060534;28;20047;-75
2022/10/15 01:32:59;;;;;;;53.83;26.48;;;12.80;99.90;;;;;;5062813;28;20029;-73
2022/10/15 01:36:03;;;;;;;55.67;27.58;;;12.80;99.90;;;;;;5062050;28;20029;-73
2022/10/15 01:38:55;;;;;;;56.55;28.27;;;12.70;99.90;;;;;;4961837;29;20700;-73
2022/10/15 01:41:26;;;;;;;58.80;30.25;;;12.70;99.90;;;;;;4961967;29;20039;-73
2022/10/15 01:43:54;;;;;;;52.33;26.02;;;12.70;99.90;;;;;;5028491;28;20051;-73
2022/10/15 01:46:45;;;;;;;48.15;26.08;;;12.70;99.90;;;;;;5060644;28;20076;-74
2022/10/15 01:49:14;;;;;;;49.83;26.40;;;12.70;99.90;;;;;;5051920;28;20025;-73
2022/10/15 01:51:42;;;;;;;52.88;26.17;;;12.70;99.90;;;;;;5061639;28;20032;-74
2022/10/15 01:54:12;;;;;;;59.95;28.45;;;12.70;99.90;;;;;;5062081;28;20479;-74
2022/10/15 01:56:39;;;;;;;66.15;31.95;;;12.70;99.90;;;;;;5061559;28;20029;-74
2022/10/15 01:59:06;;;;;;;67.75;31.52;;;12.70;99.90;;;;;;5061446;28;20021;-71
2022/10/15 02:01:32;;;;;;;66.57;31.40;;;12.70;99.90;;;;;;5061191;28;20033;-72
2022/10/15 02:03:58;;;;;;;75.10;32.38;;;12.70;99.90;;;;;;5060515;28;20024;-73
2022/10/15 02:06:42;;;;;;;65.57;31.60;;;12.70;99.90;;;;;;5061349;28;20036;-73
2022/10/15 02:09:43;;;;;;;73.90;33.55;;;12.70;99.90;;;;;;5061297;28;21026;-73
2022/10/15 02:12:34;;;;;;;74.80;33.97;;;12.70;99.90;;;;;;5032277;28;20047;-72
2022/10/15 02:15:20;;;;;;;80.43;32.63;;;12.70;99.90;;;;;;5060498;28;20127;-72
2022/10/15 02:18:11;;;;;;;73.18;33.78;;;12.70;99.90;;;;;;5042922;28;20047;-71
2022/10/15 02:20:51;;;;;;;86.97;36.13;;;12.70;99.90;;;;;;5061125;28;20162;-73
2022/10/15 02:23:21;;;;;;;77.30;34.63;;;12.80;99.90;;;;;;5061692;28;20028;-71
2022/10/15 02:25:49;;;;;;;88.05;37.05;;;12.80;99.90;;;;;;5060388;28;20024;-71
2022/10/15 02:28:16;;;;;;;80.55;37.10;;;12.80;99.90;;;;;;5061466;28;20029;-72
2022/10/15 02:30:44;;;;;;;99.53;38.33;;;12.80;99.90;;;;;;5059961;28;20024;-74
2022/10/15 02:33:11;;;;;;;92.88;38.22;;;12.80;99.90;;;;;;5060059;28;20013;-71
2022/10/15 02:35:37;;;;;;;88.28;34.50;;;12.80;99.90;;;;;;5061952;28;20087;-73
2022/10/15 02:38:07;;;;;;;77.93;35.45;;;12.80;99.90;;;;;;5061450;28;20080;-73
2022/10/15 02:40:34;;;;;;;91.97;36.58;;;12.80;99.90;;;;;;5060157;28;20033;-71
2022/10/15 02:43:04;;;;;;;99.93;38.38;;;12.80;99.90;;;;;;5059739;28;20029;-73
2022/10/15 02:45:29;;;;;;;82.82;36.05;;;12.80;99.90;;;;;;5059833;28;20105;-71
2022/10/15 02:47:55;;;;;;;88.88;36.05;;;12.80;99.90;;;;;;5060713;28;20020;-72
2022/10/15 02:50:21;;;;;;;90.65;36.85;;;12.80;99.90;;;;;;5061762;28;20025;-72
2022/10/15 02:52:46;;;;;;;89.85;37.90;;;12.80;99.90;;;;;;5060663;28;20028;-71
2022/10/15 02:55:12;;;;;;;98.40;36.53;;;12.80;99.90;;;;;;5061170;28;20111;-72
2022/10/15 02:57:38;;;;;;;90.68;36.95;;;12.80;99.90;;;;;;5061541;28;20029;-73
2022/10/15 03:00:04;;;;;;;98.32;37.75;;;12.80;99.90;;;;;;5060973;28;20029;-71
2022/10/15 03:02:29;;;;;;;95.82;37.83;;;12.80;99.90;;;;;;5060751;28;20103;-73
2022/10/15 03:04:55;;;;;;;99.95;37.38;;;12.80;99.90;;;;;;5042889;28;20025;-72
2022/10/15 03:07:21;;;;;;;89.07;37.13;;;12.70;99.90;;;;;;5060398;28;20045;-72
2022/10/15 03:09:46;;;;;;;91.30;36.83;;;12.70;99.90;;;;;;5061427;28;20103;-71
2022/10/15 03:12:12;;;;;;;89.32;37.60;;;12.70;99.90;;;;;;5061712;28;20025;-74
2022/10/15 03:14:38;;;;;;;94.30;38.35;;;12.70;99.90;;;;;;5062435;28;20083;-72
2022/10/15 03:17:03;;;;;;;81.65;36.95;;;12.70;99.90;;;;;;5064751;28;21066;-70
2022/10/15 03:19:29;;;;;;;88.97;37.80;;;12.70;99.90;;;;;;5064569;28;20025;-72
2022/10/15 03:21:54;;;;;;;99.53;39.20;;;12.70;99.90;;;;;;5064649;28;20041;-70
2022/10/15 03:24:20;;;;;;;90.20;37.00;;;12.80;99.90;;;;;;5064866;28;20028;-72
2022/10/15 03:26:45;;;;;;;83.57;36.85;;;12.70;99.90;;;;;;5064166;28;20033;-73
2022/10/15 03:29:11;;;;;;;93.07;37.75;;;12.70;99.90;;;;;;5064693;28;20024;-72
2022/10/15 03:31:38;;;;;;;90.68;37.92;;;12.70;99.90;;;;;;5055370;28;20376;-71
2022/10/15 03:34:03;;;;;;;89.90;37.90;;;12.70;99.90;;;;;;5064988;28;20140;-71
2022/10/15 03:36:29;;;;;;;90.20;40.22;;;12.70;99.90;;;;;;5064096;28;20060;-73
2022/10/15 03:38:54;;;;;;;85.93;38.45;;;12.70;99.90;;;;;;5064380;28;20021;-73
2022/10/15 03:41:20;;;;;;;83.35;36.65;;;12.70;99.90;;;;;;5054693;28;20033;-73
2022/10/15 03:43:46;;;;;;;88.53;37.72;;;12.70;99.90;;;;;;5064500;28;20033;-73
2022/10/15 03:46:11;;;;;;;88.55;37.58;;;12.70;99.90;;;;;;5063955;28;20513;-75
2022/10/15 03:48:37;;;;;;;86.70;36.88;;;12.70;99.90;;;;;;5063962;28;20109;-70
2022/10/15 03:51:03;;;;;;;87.47;39.25;;;12.70;99.90;;;;;;5064454;28;20036;-72
2022/10/15 03:53:29;;;;;;;90.15;38.10;;;12.70;99.90;;;;;;5063849;28;20029;-72
2022/10/15 03:55:54;;;;;;;81.72;37.33;;;12.70;99.90;;;;;;5053240;28;20047;-70
2022/10/15 03:58:20;;;;;;;82.80;37.78;;;12.70;99.90;;;;;;5063938;28;20036;-73
2022/10/15 04:00:46;;;;;;;84.38;37.55;;;12.70;99.90;;;;;;5064217;28;20029;-74
2022/10/15 04:03:12;;;;;;;88.38;36.75;;;12.70;99.90;;;;;;5063604;28;20443;-74
2022/10/15 04:05:38;;;;;;;92.10;39.03;;;12.70;99.90;;;;;;5063821;28;20323;-75
2022/10/15 04:08:04;;;;;;;84.85;35.53;;;12.70;99.90;;;;;;5064141;28;20514;-75
2022/10/15 04:10:30;;;;;;;78.30;35.15;;;12.70;99.90;;;;;;5063257;28;20085;-74
2022/10/15 04:12:55;;;;;;;83.72;35.00;;;12.70;99.90;;;;;;5063751;28;20025;-74
2022/10/15 04:15:21;;;;;;;87.53;38.00;;;12.60;99.90;;;;;;5063930;28;20047;-74
2022/10/15 04:17:46;;;;;;;84.35;36.15;;;12.60;99.90;;;;;;5063256;28;20059;-75
2022/10/15 04:20:12;;;;;;;90.40;37.10;;;12.60;99.90;;;;;;5063406;28;20021;-75
2022/10/15 04:22:38;;;;;;;85.32;36.88;;;12.60;99.90;;;;;;5063769;28;20557;-75
2022/10/15 04:25:04;;;;;;;92.05;36.40;;;12.60;99.90;;;;;;5045306;28;20025;-74
2022/10/15 04:27:30;;;;;;;89.90;37.60;;;12.60;99.90;;;;;;5063987;28;21378;-75
2022/10/15 04:29:55;;;;;;;84.75;35.05;;;12.50;99.90;;;;;;5062140;28;20025;-75
2022/10/15 04:32:21;;;;;;;90.30;36.45;;;12.50;99.90;;;;;;5062602;28;20051;-76
2022/10/15 04:34:47;;;;;;;86.72;35.60;;;12.50;99.90;;;;;;5063885;28;20492;-75
2022/10/15 04:37:13;;;;;;;82.47;36.42;;;12.40;99.90;;;;;;5063687;28;20021;-74
2022/10/15 04:39:39;;;;;;;81.20;34.95;;;12.40;99.90;;;;;;5063250;28;20035;-74
2022/10/15 04:42:04;;;;;;;88.65;36.67;;;12.40;99.90;;;;;;5063696;28;20045;-74
2022/10/15 04:44:30;;;;;;;87.00;34.03;;;12.50;99.90;;;;;;5062140;28;20616;-77
2022/10/15 04:46:56;;;;;;;84.18;36.60;;;12.40;99.90;;;;;;5033195;28;20113;-74
2022/10/15 04:49:22;;;;;;;77.43;35.10;;;12.40;99.90;;;;;;5042818;28;20496;-74
2022/10/15 04:51:47;;;;;;;89.30;34.67;;;12.40;99.90;;;;;;5042608;28;20029;-75
2022/10/15 04:54:14;;;;;;;96.97;35.25;;;12.40;99.90;;;;;;5032700;28;20017;-75
2022/10/15 04:56:40;;;;;;;91.53;35.90;;;12.40;99.90;;;;;;5041745;28;20052;-74
2022/10/15 04:59:07;;;;;;;90.38;34.45;;;12.40;99.90;;;;;;5042375;28;20473;-77
2022/10/15 05:01:33;;;;;;;97.88;37.20;;;12.40;99.90;;;;;;5042818;28;20504;-75
2022/10/15 05:03:58;;;;;;;91.20;35.88;;;12.30;99.90;;;;;;5042097;28;20028;-77
2022/10/15 05:06:24;;;;;;;83.80;33.13;;;12.40;99.90;;;;;;5041884;28;20037;-75
2022/10/15 05:08:50;;;;;;;88.68;34.53;;;12.40;99.90;;;;;;5042616;28;20028;-74
2022/10/15 05:11:22;;;;;;;80.22;33.90;;;12.40;99.90;;;;;;5043059;28;20489;-75
2022/10/15 05:13:48;;;;;;;80.30;34.15;;;12.30;99.90;;;;;;5042483;28;20026;-76
2022/10/15 05:16:25;;;;;;;94.35;35.85;;;12.30;99.90;;;;;;5041764;28;20021;-76
2022/10/15 05:18:55;;;;;;;93.93;35.50;;;12.30;99.90;;;;;;5024704;28;20092;-75
2022/10/15 05:21:21;;;;;;;79.38;33.38;;;12.30;99.90;;;;;;5040914;28;20025;-74
2022/10/15 05:23:48;;;;;;;91.72;35.97;;;12.30;99.90;;;;;;5041355;28;20014;-74
2022/10/15 05:26:21;;;;;;;84.05;34.58;;;12.30;99.90;;;;;;5042571;28;20026;-74
2022/10/15 05:28:47;;;;;;;96.85;36.45;;;12.30;99.90;;;;;;5039652;28;20033;-75
2022/10/15 05:31:20;;;;;;;94.15;36.45;;;12.30;99.90;;;;;;5020898;28;20598;-76
2022/10/15 05:33:50;;;;;;;81.95;36.15;;;12.30;99.90;;;;;;5036977;28;20037;-76
2022/10/15 05:36:25;;;;;;;93.72;36.90;;;12.30;99.90;;;;;;5039714;28;20058;-74
2022/10/15 05:38:54;;;;;;;86.95;35.25;;;12.30;99.90;;;;;;5041829;28;20085;-74
2022/10/15 05:41:20;;;;;;;87.25;32.78;;;12.20;99.90;;;;;;5038125;28;20529;-74
2022/10/15 05:43:50;;;;;;;90.43;34.20;;;12.20;99.90;;;;;;5030721;28;20029;-73
2022/10/15 05:46:16;;;;;;;88.22;35.40;;;12.20;99.90;;;;;;5054455;28;20037;-74
2022/10/15 05:48:42;;;;;;;88.28;32.45;;;12.20;99.90;;;;;;5061165;28;20020;-75
2022/10/15 05:51:12;;;;;;;79.80;32.50;;;12.20;99.90;;;;;;5059471;28;20029;-74
2022/10/15 05:53:39;;;;;;;84.68;34.13;;;12.10;99.90;;;;;;5056561;28;20057;-74
2022/10/15 05:56:07;;;;;;;89.53;32.22;;;12.10;99.90;;;;;;5060585;28;20035;-74
2022/10/15 05:58:34;;;;;;;76.35;30.88;;;12.20;99.90;;;;;;5057727;28;20048;-73
2022/10/15 06:01:02;;;;;;;84.60;32.63;;;12.20;99.90;;;;;;5060326;28;20067;-73
2022/10/15 06:03:28;;;;;;;79.88;31.88;;;12.20;99.90;;;;;;5059316;28;20182;-74
2022/10/15 06:05:54;;;;;;;88.97;34.00;;;12.20;99.90;;;;;;5058727;28;20037;-74
2022/10/15 06:08:20;;;;;;;83.93;30.63;;;12.20;99.90;;;;;;5050040;28;20104;-74
2022/10/15 06:10:46;;;;;;;80.47;32.35;;;12.20;99.90;;;;;;5060967;28;20048;-74
2022/10/15 06:13:13;;;;;;;84.78;34.30;;;12.20;99.90;;;;;;5059982;28;20361;-74
2022/10/15 06:15:41;;;;;;;87.07;32.28;;;12.20;99.90;;;;;;5061019;28;20025;-75
2022/10/15 06:18:09;;;;;;;90.68;33.70;;;12.20;99.90;;;;;;5060100;28;20021;-75
2022/10/15 06:20:36;;;;;;;82.53;31.10;;;12.20;99.90;;;;;;5050961;28;20087;-75
2022/10/15 06:23:04;;;;;;;93.63;34.70;;;12.20;99.90;;;;;;5049485;28;20130;-74
2022/10/15 06:25:30;;;;;;;82.05;31.98;;;12.20;99.90;;;;;;5060358;28;20021;-73
2022/10/15 06:28:03;;;;;;;86.25;33.55;;;12.20;99.90;;;;;;5056923;28;20021;-75
2022/10/15 06:30:32;;;;;;;93.68;34.55;;;12.20;99.90;;;;;;5059334;28;20041;-76
2022/10/15 06:32:59;;;;;;;85.60;33.72;;;12.20;99.90;;;;;;5059174;28;20811;-74
2022/10/15 06:35:29;;;;;;;90.20;34.30;;;12.20;99.90;;;;;;5050160;28;20025;-75
2022/10/15 06:37:54;;;;;;;84.05;32.90;;;12.20;99.90;;;;;;5056840;28;20047;-76
2022/10/15 06:40:20;;;;;;;78.40;32.65;;;12.30;99.90;;;;;;5044955;28;20460;-74
2022/10/15 06:42:46;;;;;;;82.47;33.03;;;12.30;99.90;;;;;;5056535;28;20102;-75
2022/10/15 06:45:12;;;;;;;91.97;32.58;;;12.30;99.90;;;;;;5055615;28;20061;-76
2022/10/15 06:47:41;;;;;;;92.03;34.47;;;12.30;99.90;;;;;;5057790;28;20029;-76
2022/10/15 06:50:08;;;;;;;85.68;34.63;;;12.30;99.90;;;;;;5063178;28;20027;-76
2022/10/15 06:52:33;;;;;;;87.90;33.33;;;12.40;99.90;;;;;;5043739;28;20036;-75
2022/10/15 06:55:05;;;;;;;89.75;33.47;;;12.40;99.90;;;;;;5062028;28;20056;-74
2022/10/15 06:57:31;;;;;;;86.78;35.47;;;12.50;99.90;;;;;;5053127;28;20508;-75
2022/10/15 06:59:56;;;;;;;96.65;35.83;;;12.50;99.90;;;;;;5043037;28;20058;-74
2022/10/15 07:02:23;;;;;;;95.70;34.28;;;12.50;99.90;;;;;;5061847;28;20048;-74
2022/10/15 07:04:49;;;;;;;89.78;34.35;;;12.50;99.90;;;;;;5061837;28;20118;-72
2022/10/15 07:07:15;;;;;;;95.90;35.70;;;12.50;99.90;;;;;;5062859;28;20055;-75
2022/10/15 07:09:42;;;;;;;79.13;34.40;;;12.50;99.90;;;;;;5065432;28;20040;-74
2022/10/15 07:12:08;;;;;;;83.57;34.20;;;12.50;99.90;;;;;;5064230;28;20088;-74
2022/10/15 07:14:33;;;;;;;100.65;35.90;;;12.60;99.90;;;;;;5063497;28;20033;-73
2022/10/15 07:16:59;;;;;;;84.68;35.55;;;12.60;99.90;;;;;;5045627;28;20029;-76
2022/10/15 07:19:27;;;;;;;97.10;34.65;;;12.60;99.90;;;;;;5065286;28;20423;-75
2022/10/15 07:21:53;;;;;;;86.25;34.70;;;12.60;99.90;;;;;;5060773;28;20029;-75
2022/10/15 07:24:19;;;;;;;89.47;33.88;;;12.60;99.90;;;;;;5053559;28;20036;-75
2022/10/15 07:26:46;;;;;;;82.55;33.88;;;12.70;99.90;;;;;;5062133;28;20033;-73
2022/10/15 07:29:12;;;;;;;94.47;34.85;;;12.70;99.90;;;;;;5045380;28;20100;-74
2022/10/15 07:31:38;;;;;;;94.55;34.60;;;12.70;99.90;;;;;;5064612;28;20036;-74
2022/10/15 07:34:05;;;;;;;95.28;35.72;;;12.70;99.90;;;;;;5064516;28;20100;-75
2022/10/15 07:36:30;;;;;;;84.20;35.03;;;12.80;99.90;;;;;;5063662;28;20735;-75
2022/10/15 07:38:56;;;;;;;83.85;34.53;;;12.80;99.90;;;;;;5061125;28;20040;-75
2022/10/15 07:41:22;;;;;;;91.72;35.03;;;12.80;99.90;;;;;;5063344;28;20029;-76
2022/10/15 07:43:50;;;;;;;88.30;34.42;;;12.80;99.90;;;;;;5063765;28;20024;-75
2022/10/15 07:46:16;;;;;;;75.13;32.67;;;12.80;99.90;;;;;;5061979;28;20052;-73
2022/10/15 07:48:42;;;;;;;97.65;35.17;;;12.80;99.90;;;;;;5063612;28;20027;-74
2022/10/15 07:51:10;;;;;;;97.38;34.42;;;12.90;99.90;;;;;;5062611;28;20109;-74
2022/10/15 07:53:36;;;;;;;81.15;34.45;;;12.90;99.90;;;;;;5063309;28;20087;-72
2022/10/15 07:56:08;;;;;;;82.40;33.85;;;12.80;99.90;;;;;;5061806;28;20025;-73
2022/10/15 07:58:34;;;;;;;95.38;36.28;;;12.80;99.90;;;;;;5063137;28;20036;-73
2022/10/15 08:01:05;;;;;;;88.80;35.75;;;12.80;99.90;;;;;;5062534;28;20026;-74
2022/10/15 08:03:31;;;;;;;80.78;33.67;;;12.80;99.90;;;;;;5062922;28;20547;-74
2022/10/15 08:05:59;;;;;;;74.72;33.08;;;12.90;99.90;;;;;;5063695;28;20028;-72
2022/10/15 08:08:25;;;;;;;82.55;33.45;;;13.00;99.90;;;;;;5062451;28;20204;-71
2022/10/15 08:10:51;;;;;;;86.50;35.00;;;13.10;99.90;;;;;;5063096;28;20025;-74
2022/10/15 08:13:18;;;;;;;76.68;32.22;;;13.20;99.90;;;;;;5061373;28;20051;-73
2022/10/15 08:15:44;;;;;;;83.53;32.85;;;13.40;99.90;;;;;;5061241;28;20024;-76
2022/10/15 08:18:09;;;;;;;76.70;30.42;;;13.50;99.90;;;;;;5058449;28;20039;-73
2022/10/15 08:20:38;;;;;;;78.45;33.15;;;13.60;99.90;;;;;;5063184;28;20016;-73
2022/10/15 08:23:05;;;;;;;79.90;32.42;;;13.70;99.90;;;;;;5044818;28;20037;-75
2022/10/15 08:25:31;;;;;;;84.32;31.98;;;13.80;99.90;;;;;;5061769;28;20028;-74
2022/10/15 08:27:57;;;;;;;78.00;32.15;;;13.80;99.90;;;;;;5052612;28;20029;-74
2022/10/15 08:30:24;;;;;;;81.85;32.08;;;13.90;99.90;;;;;;5062802;28;20559;-74
2022/10/15 08:32:50;;;;;;;68.45;31.20;;;14.00;99.90;;;;;;5061952;28;20024;-77
2022/10/15 08:35:15;;;;;;;71.75;30.17;;;14.10;99.90;;;;;;5062821;28;20033;-76
2022/10/15 08:37:41;;;;;;;69.35;28.63;;;14.20;99.90;;;;;;5051582;28;20040;-74
2022/10/15 08:40:09;;;;;;;72.70;28.55;;;14.30;99.90;;;;;;5059043;28;20090;-74
2022/10/15 08:42:42;;;;;;;71.55;29.52;;;14.30;99.90;;;;;;5050004;28;20041;-74
2022/10/15 08:45:23;;;;;;;65.97;28.10;;;14.40;99.90;;;;;;5059228;28;20045;-73
2022/10/15 08:47:57;;;;;;;74.22;29.67;;;14.50;99.90;;;;;;5062242;28;20039;-74
2022/10/15 08:50:27;;;;;;;62.63;26.17;;;14.60;99.90;;;;;;5062050;28;20025;-73
2022/10/15 08:52:56;;;;;;;69.10;26.73;;;14.70;99.90;;;;;;5061857;28;20398;-74
2022/10/15 08:55:22;;;;;;;57.15;27.13;;;14.70;99.90;;;;;;5043740;28;20033;-74
2022/10/15 08:57:51;;;;;;;63.22;27.85;;;14.80;99.90;;;;;;5062486;28;20096;-73
2022/10/15 09:00:22;;;;;;;55.25;26.30;;;14.90;99.90;;;;;;5061265;28;20025;-73
2022/10/15 09:03:25;;;;;;;65.32;28.83;;;15.00;99.90;;;;;;5061695;28;20037;-78
2022/10/15 09:06:29;;;;;;;56.08;22.92;;;15.10;99.90;;;;;;5061794;28;20112;-74
2022/10/15 09:09:14;;;;;;;47.60;22.45;;;15.30;99.90;;;;;;5061498;28;20032;-76
2022/10/15 09:12:05;;;;;;;48.83;22.60;;;15.30;99.90;;;;;;5059031;28;20489;-76
2022/10/15 09:14:36;;;;;;;48.78;22.10;;;15.30;99.90;;;;;;5061497;28;20028;-74
2022/10/15 09:17:13;;;;;;;49.22;20.60;;;15.30;99.90;;;;;;5066136;28;20040;-73
2022/10/15 09:19:41;;;;;;;43.63;19.70;;;15.30;99.90;;;;;;5061562;28;20123;-74
2022/10/15 09:22:13;;;;;;;47.35;21.60;;;15.30;99.90;;;;;;5062541;28;20033;-79
2022/10/15 09:24:40;;;;;;;52.85;22.05;;;15.20;99.90;;;;;;5059943;28;20032;-75
2022/10/15 09:27:32;;;;;;;50.47;20.20;;;15.10;99.90;;;;;;5061868;28;20021;-74
2022/10/15 09:30:33;;;;;;;43.92;18.67;;;15.10;99.90;;;;;;5062310;28;20025;-74
2022/10/15 09:33:05;;;;;;;47.75;18.67;;;15.20;99.90;;;;;;5030043;28;20047;-76
2022/10/15 09:35:52;;;;;;;41.20;18.25;;;15.20;99.90;;;;;;5059523;28;20082;-76
2022/10/15 09:38:53;;;;;;;37.00;17.90;;;15.30;99.90;;;;;;5052915;28;20036;-75
2022/10/15 09:41:58;;;;;;;36.80;17.95;;;15.40;99.90;;;;;;5014915;28;20046;-75
2022/10/15 09:44:35;;;;;;;;;;;15.50;99.90;;;;;;5061667;28;20080;-74
2022/10/15 09:47:01;;;;;;;31.92;15.82;;;15.50;99.90;;;;;;5061291;28;19917;-75
2022/10/15 09:49:27;;;;;;;33.13;17.20;;;15.40;99.90;;;;;;5062154;28;20381;-75
2022/10/15 09:52:01;;;;;;;32.20;17.08;;;15.40;99.90;;;;;;5060901;28;20036;-71
2022/10/15 09:54:45;;;;;;;35.85;16.27;;;15.30;99.90;;;;;;5061193;28;20027;-77
2022/10/15 09:57:13;;;;;;;33.55;15.77;;;15.20;99.90;;;;;;5061252;28;20033;-74
2022/10/15 09:59:55;;;;;;;33.28;16.45;;;15.20;99.90;;;;;;5060600;28;20092;-76
2022/10/15 10:02:23;;;;;;;34.67;18.20;;;15.10;99.90;;;;;;5061288;28;20033;-75
2022/10/15 10:04:49;;;;;;;27.20;15.75;;;15.10;99.90;;;;;;5061495;28;20050;-73
2022/10/15 10:07:33;;;;;;;37.53;16.00;;;15.20;99.90;;;;;;5061276;28;20077;-75
2022/10/15 10:10:20;;;;;;;34.75;16.38;;;15.30;99.90;;;;;;5060159;28;20049;-77
2022/10/15 10:12:46;;;;;;;36.65;17.83;;;15.40;99.90;;;;;;5058351;28;21580;-76
2022/10/15 10:15:21;;;;;;;39.92;17.17;;;15.50;99.90;;;;;;5053298;28;20040;-75
2022/10/15 10:17:54;;;;;;;36.17;16.33;;;15.70;99.90;;;;;;5055275;28;20037;-72
2022/10/15 10:20:26;;;;;;;37.87;16.97;;;15.80;99.90;;;;;;5059664;28;20029;-73
2022/10/15 10:23:00;;;;;;;37.00;16.45;;;15.90;99.90;;;;;;5037383;28;20071;-76
2022/10/15 10:25:25;;;;;;;32.58;15.48;;;15.90;99.90;;;;;;5056792;28;20472;-74
2022/10/15 10:27:52;;;;;;;30.20;15.70;;;16.00;99.90;;;;;;5059107;28;20039;-75
2022/10/15 10:30:18;;;;;;;37.20;20.05;;;16.00;99.90;;;;;;5056435;28;20052;-75
2022/10/15 10:32:45;;;;;;;50.65;20.67;;;16.10;99.90;;;;;;5059901;28;20033;-72
2022/10/15 10:35:22;;;;;;;37.92;20.88;;;16.20;99.90;;;;;;5059815;28;20060;-71
2022/10/15 10:37:49;;;;;;;45.00;22.75;;;16.20;99.90;;;;;;5060582;28;20025;-75
2022/10/15 10:40:33;;;;;;;42.92;21.83;;;16.20;99.90;;;;;;5060799;28;20029;-75
2022/10/15 10:43:21;;;;;;;47.13;22.95;;;16.30;99.90;;;;;;5058322;28;20051;-74
2022/10/15 10:45:54;;;;;;;43.45;21.88;;;16.40;99.90;;;;;;5030270;28;20068;-75
2022/10/15 10:48:43;;;;;;;51.92;24.77;;;16.50;99.90;;;;;;5060524;28;20032;-75
2022/10/15 10:51:13;;;;;;;50.08;23.42;;;16.60;99.90;;;;;;5061096;28;20029;-71
2022/10/15 10:54:00;;;;;;;46.40;23.33;;;16.70;99.90;;;;;;5061024;28;20033;-77
2022/10/15 10:56:42;;;;;;;51.88;24.52;;;16.80;99.90;;;;;;5059444;28;20031;-76
2022/10/15 10:59:42;;;;;;;50.70;22.50;;;16.90;99.90;;;;;;5060668;28;20025;-77
2022/10/15 11:02:11;;;;;;;52.95;26.92;;;17.10;99.90;;;;;;5043359;28;20131;-78
2022/10/15 11:04:38;;;;;;;49.08;23.95;;;17.20;99.90;;;;;;5060358;28;20036;-75
2022/10/15 11:07:28;;;;;;;49.33;24.88;;;17.30;99.90;;;;;;5061173;28;20104;-74
2022/10/15 11:10:26;;;;;;;50.80;22.77;;;17.40;99.90;;;;;;5052007;28;20040;-75
2022/10/15 11:12:55;;;;;;;48.58;23.75;;;17.50;99.90;;;;;;5056844;28;20042;-74
2022/10/15 11:15:53;;;;;;;49.70;24.45;;;17.60;99.90;;;;;;5068127;28;20036;-72
2022/10/15 11:18:42;;;;;;;48.90;25.27;;;17.70;99.90;;;;;;5020252;28;20033;-74
2022/10/15 11:21:20;;;;;;;47.75;24.55;;;17.60;99.90;;;;;;5058477;28;20087;-72
2022/10/15 11:24:01;;;;;;;43.33;24.70;;;17.80;99.90;;;;;;5051630;28;20033;-74
2022/10/15 11:26:47;;;;;;;51.35;25.40;;;17.90;99.90;;;;;;5061132;28;20024;-75
2022/10/15 11:29:33;;;;;;;45.53;23.27;;;18.10;99.90;;;;;;5061229;28;20021;-75
2022/10/15 11:32:06;;;;;;;49.85;24.65;;;18.30;99.90;;;;;;5060602;28;20505;-77
2022/10/15 11:35:03;;;;;;;37.35;21.25;;;18.20;99.90;;;;;;5060638;28;20021;-70
2022/10/15 11:37:48;;;;;;;42.22;23.02;;;18.10;99.90;;;;;;5064246;28;20033;-74
2022/10/15 11:40:55;;;;;;;47.70;25.48;;;18.00;99.90;;;;;;5060619;28;20041;-77
2022/10/15 11:43:29;;;;;;;45.55;25.40;;;17.90;99.90;;;;;;4962135;28;20039;-72
2022/10/15 11:46:20;;;;;;;54.67;26.55;;;17.90;99.90;;;;;;5044854;28;20083;-73
2022/10/15 11:49:17;;;;;;;48.22;26.88;;;17.90;99.90;;;;;;5063902;28;20045;-74
2022/10/15 11:52:06;;;;;;;52.33;23.70;;;17.90;99.90;;;;;;5064243;28;20025;-77
2022/10/15 11:55:14;;;;;;;50.28;27.55;;;18.00;99.90;;;;;;5054166;28;20032;-76
2022/10/15 11:57:41;;;;;;;50.70;25.67;;;18.00;99.90;;;;;;5036327;28;20029;-71
2022/10/15 12:00:16;;;;;;;50.90;26.83;;;18.10;99.90;;;;;;5064083;28;20028;-74
2022/10/15 12:02:42;;;;;;;44.67;24.85;;;18.00;99.90;;;;;;5063821;28;20157;-76
2022/10/15 12:05:14;;;;;;;43.47;23.85;;;17.80;99.90;;;;;;5063389;28;20033;-73
2022/10/15 12:07:41;;;;;;;48.80;24.75;;;17.60;99.90;;;;;;5063656;28;20020;-75
2022/10/15 12:10:33;;;;;;;42.03;23.05;;;17.40;99.90;;;;;;5063212;28;20038;-72
2022/10/15 12:13:15;;;;;;;47.38;26.50;;;17.20;99.90;;;;;;5063463;28;20029;-74
2022/10/15 12:15:50;;;;;;;49.42;24.42;;;17.00;99.90;;;;;;5063878;28;20042;-76
2022/10/15 12:18:26;;;;;;;47.95;24.40;;;16.90;99.90;;;;;;5063576;28;20485;-78
2022/10/15 12:20:54;;;;;;;48.47;24.55;;;16.70;99.90;;;;;;5062488;28;20440;-74
2022/10/15 12:23:40;;;;;;;44.72;22.80;;;16.70;99.90;;;;;;5062761;28;20055;-74
2022/10/15 12:26:26;;;;;;;45.08;23.65;;;16.60;99.90;;;;;;5069636;28;20041;-74
2022/10/15 12:28:57;;;;;;;46.75;22.88;;;16.50;99.90;;;;;;5062781;28;20043;-74
2022/10/15 12:31:23;;;;;;;45.25;22.95;;;16.50;99.90;;;;;;5060019;28;20148;-74
2022/10/15 12:33:56;;;;;;;47.33;21.35;;;16.50;99.90;;;;;;5062485;28;20051;-75
2022/10/15 12:36:29;;;;;;;43.08;19.77;;;16.50;99.90;;;;;;5044049;28;20056;-75
2022/10/15 12:39:00;;;;;;;35.72;20.30;;;16.50;99.90;;;;;;5061684;28;20028;-77
2022/10/15 12:41:47;;;;;;;39.22;19.00;;;16.50;99.90;;;;;;5059827;28;20097;-74
2022/10/15 12:44:33;;;;;;;33.35;17.30;;;16.50;99.90;;;;;;5045205;28;20028;-74
2022/10/15 12:46:59;;;;;;;34.55;15.90;;;16.50;99.90;;;;;;5062786;28;20053;-75
2022/10/15 12:49:25;;;;;;;35.40;17.15;;;16.50;99.90;;;;;;5062342;28;20043;-77
2022/10/15 12:51:54;;;;;;;36.15;17.30;;;16.60;99.90;;;;;;5061857;28;20032;-74